Diane H — WUR7250 — position and weather

sailwx.info

Track history (hours):
 
Tides and Currents Weather Stations Pressure Air Temp Water Temp Dewpoint Dewpoint Depression Visibility Wind Speed Wind Dir Waves Ship Positions

Diane H

Owner: BOYER TOWING INC, KETCHIKAN, AK. More information available from US FCC via Universal Licensing System and Coast Guard Vessel Documentation Center.

Last reported at 2017-Feb-23 12:32 UTC. Time now 2017-Apr-28 23:42 UTC.
Position N 51°34' W 127°53'.
Warning: this ship's position is months out of date.

Type: Towing. MMSI: 366673090.

Date/timePositionNaut miles runAvg speedWind from/ knotsBaromVisibWave heightAir tempDewpointWater temp
2017-Feb-23 12:32N 51°34' W 127°53'6 5.9
2017-Feb-23 11:31N 51°28' W 127°51'11 5.4
2017-Feb-23 09:31N 51°18' W 127°52'5 5.2
2017-Feb-23 08:33N 51°13' W 127°51'5 4.7
2017-Feb-23 07:32N 51°08' W 127°49'5 5.0
2017-Feb-23 06:33N 51°05' W 127°43'5 4.6
2017-Feb-23 05:33N 51°02' W 127°38'4 4.2
2017-Feb-23 04:33N 50°59' W 127°33'4 4.4
2017-Feb-23 03:33N 50°56' W 127°27'5 5.1
2017-Feb-23 02:33N 50°53' W 127°21'5 4.9
2017-Feb-23 01:33N 50°51' W 127°14'5 5.3
2017-Feb-23 00:33N 50°48' W 127°07'28 5.6
2017-Feb-22 19:29N 50°30' W 126°33'14 6.2
2017-Feb-22 17:13N 50°29' W 126°11'30 7.5
2017-Feb-22 13:16N 50°20' W 125°26'5 7.4
2017-Feb-22 12:32N 50°15' W 125°23'7 6.8
2017-Feb-22 11:33N 50°09' W 125°21'6 5.7
2017-Feb-22 10:33N 50°05' W 125°16'4 4.0
2017-Feb-22 09:33N 50°01' W 125°13'2 2.4
2017-Feb-22 08:33N 49°59' W 125°11'4 4.0
2017-Feb-22 07:33N 49°56' W 125°06'5 4.8
2017-Feb-22 06:32N 49°53' W 125°00'5 5.1
2017-Feb-22 05:33N 49°50' W 124°54'6 5.5
2017-Feb-22 04:33N 49°47' W 124°47'6 5.6
2017-Feb-22 03:33N 49°43' W 124°41'6 5.5
2017-Feb-22 02:23N 49°39' W 124°33'5 5.4
2017-Feb-22 01:31N 49°36' W 124°27'8 5.9
2017-Feb-22 00:06N 49°32' W 124°16'27 5.4
2017-Feb-21 19:10N 49°16' W 123°43'3 5.0
2017-Feb-21 18:33N 49°14' W 123°40'5 4.7
2017-Feb-21 17:30N 49°11' W 123°34'4 4.1
2017-Feb-21 16:27N 49°08' W 123°29'4 4.6
2017-Feb-21 15:32N 49°05' W 123°24'5 4.6
2017-Feb-21 14:33N 49°02' W 123°18'4 4.5
2017-Feb-21 13:33N 48°59' W 123°14'5 5.0
2017-Feb-21 12:33N 48°56' W 123°08'6 5.8
2017-Feb-21 11:33N 48°52' W 123°01'13 6.4
2017-Feb-21 09:33N 48°45' W 122°45'7 6.8
2017-Feb-21 08:33N 48°38' W 122°44'8 8.1
2017-Feb-21 07:33N 48°30' W 122°44'7 7.2
2017-Feb-21 06:33N 48°23' W 122°45'6 6.2
2017-Feb-21 05:33N 48°17' W 122°47'5 5.2
2017-Feb-21 04:33N 48°11' W 122°47'12 6.0
2017-Feb-21 02:32N 48°01' W 122°37'7 7.0
2017-Feb-21 01:33N 47°56' W 122°30'7 7.1
2017-Feb-21 00:33N 47°49' W 122°27'7 6.7
2017-Feb-20 23:33N 47°43' W 122°26'6 5.8
2017-Feb-20 22:34N 47°37' W 122°24'2 2.1
2017-Feb-20 21:33N 47°35' W 122°22'1 0.6
2017-Feb-20 20:33N 47°35' W 122°21'1 0.8
2017-Feb-20 19:33N 47°34' W 122°21'3 2.6
2017-Feb-20 18:33N 47°32' W 122°20'0 0.0
2017-Feb-20 17:33N 47°32' W 122°20'0 0.0
2017-Feb-20 16:33N 47°32' W 122°20'0 0.0
2017-Feb-20 15:33N 47°32' W 122°20'0 0.0
2017-Feb-18 23:32N 47°32' W 122°20'3 3.3
2017-Feb-18 22:33N 47°35' W 122°21'0 0.0
2017-Feb-18 21:33N 47°35' W 122°21'  
2017-Feb-15 02:15N 47°34' W 122°21'3 4.5
2017-Feb-15 01:33N 47°36' W 122°24'4 4.1
2017-Feb-15 00:34N 47°37' W 122°30'7 6.7
2017-Feb-14 23:34N 47°34' W 122°21'2 2.0
2017-Feb-14 22:33N 47°32' W 122°20'0 0.0
2017-Feb-14 21:34N 47°32' W 122°20'2 0.1
2017-Feb-14 05:29N 47°34' W 122°21'4 4.3
2017-Feb-14 04:33N 47°36' W 122°26'2 1.9
2017-Feb-14 03:33N 47°37' W 122°29'6 5.7
2017-Feb-14 02:33N 47°34' W 122°21'1 0.1
2017-Feb-13 15:33N 47°33' W 122°21'2 2.5
2017-Feb-13 14:34N 47°36' W 122°22'6 5.9
2017-Feb-13 13:34N 47°37' W 122°30'6 6.0
2017-Feb-13 12:33N 47°35' W 122°22'  
Track history (hours):
 
Tides and Currents Weather Stations Pressure Air Temp Water Temp Dewpoint Dewpoint Depression Visibility Wind Speed Wind Dir Waves Ship Positions

Diane H

Owner: BOYER TOWING INC, KETCHIKAN, AK. More information available from US FCC via Universal Licensing System and Coast Guard Vessel Documentation Center.

Last reported at 2017-Feb-23 12:32 UTC. Time now 2017-Apr-28 23:42 UTC.
Position N 51°34' W 127°53'.
Warning: this ship's position is months out of date.

Type: Towing. MMSI: 366673090.

Date/timePositionNaut miles runAvg speedWind from/ knotsBaromVisibWave heightAir tempDewpointWater temp
2017-Feb-23 12:32N 51°34' W 127°53'6 5.9
2017-Feb-23 11:31N 51°28' W 127°51'11 5.4
2017-Feb-23 09:31N 51°18' W 127°52'5 5.2
2017-Feb-23 08:33N 51°13' W 127°51'5 4.7
2017-Feb-23 07:32N 51°08' W 127°49'5 5.0
2017-Feb-23 06:33N 51°05' W 127°43'5 4.6
2017-Feb-23 05:33N 51°02' W 127°38'4 4.2
2017-Feb-23 04:33N 50°59' W 127°33'4 4.4
2017-Feb-23 03:33N 50°56' W 127°27'5 5.1
2017-Feb-23 02:33N 50°53' W 127°21'5 4.9
2017-Feb-23 01:33N 50°51' W 127°14'5 5.3
2017-Feb-23 00:33N 50°48' W 127°07'28 5.6
2017-Feb-22 19:29N 50°30' W 126°33'14 6.2
2017-Feb-22 17:13N 50°29' W 126°11'30 7.5
2017-Feb-22 13:16N 50°20' W 125°26'5 7.4
2017-Feb-22 12:32N 50°15' W 125°23'7 6.8
2017-Feb-22 11:33N 50°09' W 125°21'6 5.7
2017-Feb-22 10:33N 50°05' W 125°16'4 4.0
2017-Feb-22 09:33N 50°01' W 125°13'2 2.4
2017-Feb-22 08:33N 49°59' W 125°11'4 4.0
2017-Feb-22 07:33N 49°56' W 125°06'5 4.8
2017-Feb-22 06:32N 49°53' W 125°00'5 5.1
2017-Feb-22 05:33N 49°50' W 124°54'6 5.5
2017-Feb-22 04:33N 49°47' W 124°47'6 5.6
2017-Feb-22 03:33N 49°43' W 124°41'6 5.5
2017-Feb-22 02:23N 49°39' W 124°33'5 5.4
2017-Feb-22 01:31N 49°36' W 124°27'8 5.9
2017-Feb-22 00:06N 49°32' W 124°16'27 5.4
2017-Feb-21 19:10N 49°16' W 123°43'3 5.0
2017-Feb-21 18:33N 49°14' W 123°40'5 4.7
2017-Feb-21 17:30N 49°11' W 123°34'4 4.1
2017-Feb-21 16:27N 49°08' W 123°29'4 4.6
2017-Feb-21 15:32N 49°05' W 123°24'5 4.6
2017-Feb-21 14:33N 49°02' W 123°18'4 4.5
2017-Feb-21 13:33N 48°59' W 123°14'5 5.0
2017-Feb-21 12:33N 48°56' W 123°08'6 5.8
2017-Feb-21 11:33N 48°52' W 123°01'13 6.4
2017-Feb-21 09:33N 48°45' W 122°45'7 6.8
2017-Feb-21 08:33N 48°38' W 122°44'8 8.1
2017-Feb-21 07:33N 48°30' W 122°44'7 7.2
2017-Feb-21 06:33N 48°23' W 122°45'6 6.2
2017-Feb-21 05:33N 48°17' W 122°47'5 5.2
2017-Feb-21 04:33N 48°11' W 122°47'12 6.0
2017-Feb-21 02:32N 48°01' W 122°37'7 7.0
2017-Feb-21 01:33N 47°56' W 122°30'7 7.1
2017-Feb-21 00:33N 47°49' W 122°27'7 6.7
2017-Feb-20 23:33N 47°43' W 122°26'6 5.8
2017-Feb-20 22:34N 47°37' W 122°24'2 2.1
2017-Feb-20 21:33N 47°35' W 122°22'1 0.6
2017-Feb-20 20:33N 47°35' W 122°21'1 0.8
2017-Feb-20 19:33N 47°34' W 122°21'3 2.6
2017-Feb-20 18:33N 47°32' W 122°20'0 0.0
2017-Feb-20 17:33N 47°32' W 122°20'0 0.0
2017-Feb-20 16:33N 47°32' W 122°20'0 0.0
2017-Feb-20 15:33N 47°32' W 122°20'0 0.0
2017-Feb-18 23:32N 47°32' W 122°20'3 3.3
2017-Feb-18 22:33N 47°35' W 122°21'0 0.0
2017-Feb-18 21:33N 47°35' W 122°21'  
2017-Feb-15 02:15N 47°34' W 122°21'3 4.5
2017-Feb-15 01:33N 47°36' W 122°24'4 4.1
2017-Feb-15 00:34N 47°37' W 122°30'7 6.7
2017-Feb-14 23:34N 47°34' W 122°21'2 2.0
2017-Feb-14 22:33N 47°32' W 122°20'0 0.0
2017-Feb-14 21:34N 47°32' W 122°20'2 0.1
2017-Feb-14 05:29N 47°34' W 122°21'4 4.3
2017-Feb-14 04:33N 47°36' W 122°26'2 1.9
2017-Feb-14 03:33N 47°37' W 122°29'6 5.7
2017-Feb-14 02:33N 47°34' W 122°21'1 0.1
2017-Feb-13 15:33N 47°33' W 122°21'2 2.5
2017-Feb-13 14:34N 47°36' W 122°22'6 5.9
2017-Feb-13 13:34N 47°37' W 122°30'6 6.0
2017-Feb-13 12:33N 47°35' W 122°22'  

Dump ship's entire track history